sensor_id;sensor_type;location;lat;lon;timestamp;P1;durP1;ratioP1;P2;durP2;ratioP2
52047;SDS011;46904;49.438;8.752;2023-02-16T00:01:25;7.05;;;4.68;;
52047;SDS011;46904;49.438;8.752;2023-02-16T00:03:51;8.20;;;4.75;;
52047;SDS011;46904;49.438;8.752;2023-02-16T00:06:17;8.50;;;6.00;;
52047;SDS011;46904;49.438;8.752;2023-02-16T00:08:43;10.10;;;7.07;;
52047;SDS011;46904;49.438;8.752;2023-02-16T00:11:51;9.45;;;6.25;;
52047;SDS011;46904;49.438;8.752;2023-02-16T00:13:57;10.63;;;5.82;;
52047;SDS011;46904;49.438;8.752;2023-02-16T00:16:23;14.18;;;7.60;;
52047;SDS011;46904;49.438;8.752;2023-02-16T00:18:49;10.02;;;6.50;;
52047;SDS011;46904;49.438;8.752;2023-02-16T00:21:15;12.25;;;7.75;;
52047;SDS011;46904;49.438;8.752;2023-02-16T00:23:41;14.82;;;6.75;;
52047;SDS011;46904;49.438;8.752;2023-02-16T00:26:14;14.77;;;7.88;;
52047;SDS011;46904;49.438;8.752;2023-02-16T00:28:40;14.05;;;8.23;;
52047;SDS011;46904;49.438;8.752;2023-02-16T00:31:05;14.88;;;7.95;;
52047;SDS011;46904;49.438;8.752;2023-02-16T00:33:31;15.43;;;9.25;;
52047;SDS011;46904;49.438;8.752;2023-02-16T00:35:56;14.02;;;8.45;;
52047;SDS011;46904;49.438;8.752;2023-02-16T00:38:22;10.43;;;6.57;;
52047;SDS011;46904;49.438;8.752;2023-02-16T00:40:48;11.90;;;7.07;;
52047;SDS011;46904;49.438;8.752;2023-02-16T00:43:23;12.65;;;6.95;;
52047;SDS011;46904;49.438;8.752;2023-02-16T00:45:50;8.93;;;5.25;;
52047;SDS011;46904;49.438;8.752;2023-02-16T00:48:15;10.05;;;6.03;;
52047;SDS011;46904;49.438;8.752;2023-02-16T00:50:41;8.98;;;6.07;;
52047;SDS011;46904;49.438;8.752;2023-02-16T00:53:07;8.05;;;5.65;;
52047;SDS011;46904;49.438;8.752;2023-02-16T00:55:33;9.23;;;5.88;;
52047;SDS011;46904;49.438;8.752;2023-02-16T00:58:05;7.18;;;4.88;;
52047;SDS011;46904;49.438;8.752;2023-02-16T01:00:50;8.50;;;4.72;;
52047;SDS011;46904;49.438;8.752;2023-02-16T01:03:17;7.28;;;4.82;;
52047;SDS011;46904;49.438;8.752;2023-02-16T01:05:43;8.10;;;4.68;;
52047;SDS011;46904;49.438;8.752;2023-02-16T01:08:09;6.68;;;4.03;;
52047;SDS011;46904;49.438;8.752;2023-02-16T01:10:35;6.55;;;3.85;;
52047;SDS011;46904;49.438;8.752;2023-02-16T01:13:01;8.10;;;5.10;;
52047;SDS011;46904;49.438;8.752;2023-02-16T01:15:27;8.27;;;5.47;;
52047;SDS011;46904;49.438;8.752;2023-02-16T01:17:52;6.75;;;4.80;;
52047;SDS011;46904;49.438;8.752;2023-02-16T01:20:19;7.75;;;4.90;;
52047;SDS011;46904;49.438;8.752;2023-02-16T01:22:45;7.40;;;5.00;;
52047;SDS011;46904;49.438;8.752;2023-02-16T01:25:11;7.18;;;4.85;;
52047;SDS011;46904;49.438;8.752;2023-02-16T01:27:37;6.93;;;4.95;;
52047;SDS011;46904;49.438;8.752;2023-02-16T01:30:04;5.88;;;3.88;;
52047;SDS011;46904;49.438;8.752;2023-02-16T01:32:30;6.72;;;4.10;;
52047;SDS011;46904;49.438;8.752;2023-02-16T01:34:55;7.90;;;4.65;;
52047;SDS011;46904;49.438;8.752;2023-02-16T01:37:21;5.63;;;4.43;;
52047;SDS011;46904;49.438;8.752;2023-02-16T01:39:46;7.93;;;4.82;;
52047;SDS011;46904;49.438;8.752;2023-02-16T01:42:16;6.07;;;4.72;;
52047;SDS011;46904;49.438;8.752;2023-02-16T01:44:50;6.68;;;4.35;;
52047;SDS011;46904;49.438;8.752;2023-02-16T01:47:28;5.05;;;3.88;;
52047;SDS011;46904;49.438;8.752;2023-02-16T01:49:56;6.20;;;4.20;;
52047;SDS011;46904;49.438;8.752;2023-02-16T01:57:31;5.03;;;4.13;;
52047;SDS011;46904;49.438;8.752;2023-02-16T02:00:00;4.63;;;3.58;;
52047;SDS011;46904;49.438;8.752;2023-02-16T02:02:26;6.03;;;4.13;;
52047;SDS011;46904;49.438;8.752;2023-02-16T02:05:01;6.78;;;4.68;;
52047;SDS011;46904;49.438;8.752;2023-02-16T02:07:33;8.10;;;5.28;;
52047;SDS011;46904;49.438;8.752;2023-02-16T02:10:03;7.60;;;5.18;;
52047;SDS011;46904;49.438;8.752;2023-02-16T02:12:33;9.18;;;6.10;;
52047;SDS011;46904;49.438;8.752;2023-02-16T02:15:01;8.43;;;5.78;;
52047;SDS011;46904;49.438;8.752;2023-02-16T02:17:26;10.07;;;6.53;;
52047;SDS011;46904;49.438;8.752;2023-02-16T02:27:52;10.23;;;6.00;;
52047;SDS011;46904;49.438;8.752;2023-02-16T02:30:31;11.18;;;6.15;;
52047;SDS011;46904;49.438;8.752;2023-02-16T02:33:05;8.77;;;5.55;;
52047;SDS011;46904;49.438;8.752;2023-02-16T02:38:11;8.68;;;5.88;;
52047;SDS011;46904;49.438;8.752;2023-02-16T02:40:44;9.77;;;6.35;;
52047;SDS011;46904;49.438;8.752;2023-02-16T02:43:19;8.10;;;5.47;;
52047;SDS011;46904;49.438;8.752;2023-02-16T02:48:15;8.50;;;5.55;;
52047;SDS011;46904;49.438;8.752;2023-02-16T02:53:11;10.27;;;6.30;;
52047;SDS011;46904;49.438;8.752;2023-02-16T02:55:39;9.40;;;6.50;;
52047;SDS011;46904;49.438;8.752;2023-02-16T02:58:07;8.70;;;6.32;;
52047;SDS011;46904;49.438;8.752;2023-02-16T03:00:37;9.55;;;5.88;;
52047;SDS011;46904;49.438;8.752;2023-02-16T03:03:06;13.10;;;6.97;;
52047;SDS011;46904;49.438;8.752;2023-02-16T03:05:33;11.50;;;7.88;;
52047;SDS011;46904;49.438;8.752;2023-02-16T03:08:01;10.65;;;7.35;;
52047;SDS011;46904;49.438;8.752;2023-02-16T03:10:27;14.75;;;7.13;;
52047;SDS011;46904;49.438;8.752;2023-02-16T03:12:54;9.95;;;6.65;;
52047;SDS011;46904;49.438;8.752;2023-02-16T03:15:20;12.25;;;7.35;;
52047;SDS011;46904;49.438;8.752;2023-02-16T03:17:46;11.07;;;7.30;;
52047;SDS011;46904;49.438;8.752;2023-02-16T03:20:12;7.90;;;5.85;;
52047;SDS011;46904;49.438;8.752;2023-02-16T03:22:38;8.20;;;5.97;;
52047;SDS011;46904;49.438;8.752;2023-02-16T03:25:05;8.85;;;5.85;;
52047;SDS011;46904;49.438;8.752;2023-02-16T03:27:31;8.15;;;5.68;;
52047;SDS011;46904;49.438;8.752;2023-02-16T03:29:58;9.70;;;6.28;;
52047;SDS011;46904;49.438;8.752;2023-02-16T03:32:25;8.48;;;6.15;;
52047;SDS011;46904;49.438;8.752;2023-02-16T03:34:51;8.63;;;5.80;;
52047;SDS011;46904;49.438;8.752;2023-02-16T03:37:16;8.90;;;6.55;;
52047;SDS011;46904;49.438;8.752;2023-02-16T03:39:42;7.75;;;5.55;;
52047;SDS011;46904;49.438;8.752;2023-02-16T03:42:08;10.02;;;6.38;;
52047;SDS011;46904;49.438;8.752;2023-02-16T03:44:33;11.90;;;6.53;;
52047;SDS011;46904;49.438;8.752;2023-02-16T03:46:59;10.98;;;6.60;;
52047;SDS011;46904;49.438;8.752;2023-02-16T03:49:24;10.27;;;6.35;;
52047;SDS011;46904;49.438;8.752;2023-02-16T03:51:50;12.45;;;7.38;;
52047;SDS011;46904;49.438;8.752;2023-02-16T03:54:15;12.13;;;7.70;;
52047;SDS011;46904;49.438;8.752;2023-02-16T03:56:41;10.10;;;7.57;;
52047;SDS011;46904;49.438;8.752;2023-02-16T03:59:06;13.25;;;8.48;;
52047;SDS011;46904;49.438;8.752;2023-02-16T04:01:32;11.60;;;6.93;;
52047;SDS011;46904;49.438;8.752;2023-02-16T04:03:58;14.40;;;8.27;;
52047;SDS011;46904;49.438;8.752;2023-02-16T04:06:23;11.38;;;7.25;;
52047;SDS011;46904;49.438;8.752;2023-02-16T04:08:49;10.68;;;7.43;;
52047;SDS011;46904;49.438;8.752;2023-02-16T04:11:14;10.85;;;7.50;;
52047;SDS011;46904;49.438;8.752;2023-02-16T04:13:40;9.93;;;7.05;;
52047;SDS011;46904;49.438;8.752;2023-02-16T04:16:05;13.13;;;7.30;;
52047;SDS011;46904;49.438;8.752;2023-02-16T04:18:31;13.80;;;8.70;;
52047;SDS011;46904;49.438;8.752;2023-02-16T04:20:57;10.75;;;7.00;;
52047;SDS011;46904;49.438;8.752;2023-02-16T04:23:22;12.70;;;8.85;;
52047;SDS011;46904;49.438;8.752;2023-02-16T04:25:48;11.65;;;7.93;;
52047;SDS011;46904;49.438;8.752;2023-02-16T04:28:13;10.75;;;6.97;;
52047;SDS011;46904;49.438;8.752;2023-02-16T04:30:39;11.00;;;7.65;;
52047;SDS011;46904;49.438;8.752;2023-02-16T04:33:04;10.75;;;7.07;;
52047;SDS011;46904;49.438;8.752;2023-02-16T04:35:30;9.77;;;7.30;;
52047;SDS011;46904;49.438;8.752;2023-02-16T04:37:55;9.88;;;7.38;;
52047;SDS011;46904;49.438;8.752;2023-02-16T04:40:21;11.90;;;7.85;;
52047;SDS011;46904;49.438;8.752;2023-02-16T04:42:46;10.38;;;6.40;;
52047;SDS011;46904;49.438;8.752;2023-02-16T04:45:12;10.68;;;7.13;;
52047;SDS011;46904;49.438;8.752;2023-02-16T04:47:38;10.90;;;7.20;;
52047;SDS011;46904;49.438;8.752;2023-02-16T04:50:04;11.57;;;7.00;;
52047;SDS011;46904;49.438;8.752;2023-02-16T04:52:29;10.50;;;6.43;;
52047;SDS011;46904;49.438;8.752;2023-02-16T04:54:55;11.85;;;7.93;;
52047;SDS011;46904;49.438;8.752;2023-02-16T04:57:20;11.38;;;7.95;;
52047;SDS011;46904;49.438;8.752;2023-02-16T04:59:46;11.73;;;7.30;;
52047;SDS011;46904;49.438;8.752;2023-02-16T05:02:12;11.50;;;7.72;;
52047;SDS011;46904;49.438;8.752;2023-02-16T05:04:37;12.07;;;7.75;;
52047;SDS011;46904;49.438;8.752;2023-02-16T05:07:03;11.50;;;7.55;;
52047;SDS011;46904;49.438;8.752;2023-02-16T05:09:28;11.05;;;7.57;;
52047;SDS011;46904;49.438;8.752;2023-02-16T05:11:54;11.30;;;7.95;;
52047;SDS011;46904;49.438;8.752;2023-02-16T05:14:21;11.02;;;7.32;;
52047;SDS011;46904;49.438;8.752;2023-02-16T05:16:46;11.70;;;8.10;;
52047;SDS011;46904;49.438;8.752;2023-02-16T05:19:12;11.05;;;7.90;;
52047;SDS011;46904;49.438;8.752;2023-02-16T05:21:37;13.75;;;8.82;;
52047;SDS011;46904;49.438;8.752;2023-02-16T05:24:04;11.43;;;8.35;;
52047;SDS011;46904;49.438;8.752;2023-02-16T05:26:30;11.20;;;8.57;;
52047;SDS011;46904;49.438;8.752;2023-02-16T05:28:56;14.45;;;8.88;;
52047;SDS011;46904;49.438;8.752;2023-02-16T05:31:22;13.23;;;8.50;;
52047;SDS011;46904;49.438;8.752;2023-02-16T05:33:47;15.63;;;9.15;;
52047;SDS011;46904;49.438;8.752;2023-02-16T05:36:13;12.73;;;8.77;;
52047;SDS011;46904;49.438;8.752;2023-02-16T05:38:39;11.88;;;8.27;;
52047;SDS011;46904;49.438;8.752;2023-02-16T05:41:04;13.20;;;9.30;;
52047;SDS011;46904;49.438;8.752;2023-02-16T05:43:30;13.43;;;8.13;;
52047;SDS011;46904;49.438;8.752;2023-02-16T05:45:56;12.80;;;8.63;;
52047;SDS011;46904;49.438;8.752;2023-02-16T05:48:21;13.38;;;8.18;;
52047;SDS011;46904;49.438;8.752;2023-02-16T05:50:47;11.75;;;7.78;;
52047;SDS011;46904;49.438;8.752;2023-02-16T05:53:12;12.40;;;8.38;;
52047;SDS011;46904;49.438;8.752;2023-02-16T05:55:38;14.10;;;9.00;;
52047;SDS011;46904;49.438;8.752;2023-02-16T05:58:03;12.77;;;8.77;;
52047;SDS011;46904;49.438;8.752;2023-02-16T06:00:29;12.20;;;8.85;;
52047;SDS011;46904;49.438;8.752;2023-02-16T06:02:54;12.45;;;8.77;;
52047;SDS011;46904;49.438;8.752;2023-02-16T06:05:20;12.32;;;8.25;;
52047;SDS011;46904;49.438;8.752;2023-02-16T06:07:45;13.82;;;8.30;;
52047;SDS011;46904;49.438;8.752;2023-02-16T06:10:11;12.73;;;8.77;;
52047;SDS011;46904;49.438;8.752;2023-02-16T06:12:37;12.82;;;8.80;;
52047;SDS011;46904;49.438;8.752;2023-02-16T06:15:02;15.75;;;9.63;;
52047;SDS011;46904;49.438;8.752;2023-02-16T06:17:28;16.45;;;8.93;;
52047;SDS011;46904;49.438;8.752;2023-02-16T06:19:54;15.05;;;9.88;;
52047;SDS011;46904;49.438;8.752;2023-02-16T06:22:19;13.88;;;9.75;;
52047;SDS011;46904;49.438;8.752;2023-02-16T06:24:47;13.40;;;8.73;;
52047;SDS011;46904;49.438;8.752;2023-02-16T06:27:13;12.77;;;8.82;;
52047;SDS011;46904;49.438;8.752;2023-02-16T06:29:39;13.57;;;9.45;;
52047;SDS011;46904;49.438;8.752;2023-02-16T06:32:04;12.27;;;8.73;;
52047;SDS011;46904;49.438;8.752;2023-02-16T06:34:30;13.32;;;9.07;;
52047;SDS011;46904;49.438;8.752;2023-02-16T06:36:55;14.00;;;9.05;;
52047;SDS011;46904;49.438;8.752;2023-02-16T06:39:21;14.10;;;8.75;;
52047;SDS011;46904;49.438;8.752;2023-02-16T06:41:49;15.73;;;9.27;;
52047;SDS011;46904;49.438;8.752;2023-02-16T06:44:15;13.30;;;9.50;;
52047;SDS011;46904;49.438;8.752;2023-02-16T06:46:41;15.40;;;10.18;;
52047;SDS011;46904;49.438;8.752;2023-02-16T06:49:09;14.93;;;9.98;;
52047;SDS011;46904;49.438;8.752;2023-02-16T06:51:35;12.85;;;8.35;;
52047;SDS011;46904;49.438;8.752;2023-02-16T06:54:00;13.63;;;9.02;;
52047;SDS011;46904;49.438;8.752;2023-02-16T06:56:26;14.35;;;9.27;;
52047;SDS011;46904;49.438;8.752;2023-02-16T06:58:52;14.00;;;10.38;;
52047;SDS011;46904;49.438;8.752;2023-02-16T07:01:17;15.68;;;9.75;;
52047;SDS011;46904;49.438;8.752;2023-02-16T07:03:43;14.73;;;9.90;;
52047;SDS011;46904;49.438;8.752;2023-02-16T07:06:08;14.98;;;10.55;;
52047;SDS011;46904;49.438;8.752;2023-02-16T07:08:34;15.52;;;9.18;;
52047;SDS011;46904;49.438;8.752;2023-02-16T07:10:59;13.93;;;9.60;;
52047;SDS011;46904;49.438;8.752;2023-02-16T07:13:25;16.60;;;10.00;;
52047;SDS011;46904;49.438;8.752;2023-02-16T07:15:50;14.50;;;10.02;;
52047;SDS011;46904;49.438;8.752;2023-02-16T07:18:16;14.25;;;9.73;;
52047;SDS011;46904;49.438;8.752;2023-02-16T07:20:42;14.57;;;9.68;;
52047;SDS011;46904;49.438;8.752;2023-02-16T07:23:07;15.55;;;10.15;;
52047;SDS011;46904;49.438;8.752;2023-02-16T07:25:33;14.90;;;10.25;;
52047;SDS011;46904;49.438;8.752;2023-02-16T07:27:58;18.38;;;12.40;;
52047;SDS011;46904;49.438;8.752;2023-02-16T07:30:24;15.88;;;11.10;;
52047;SDS011;46904;49.438;8.752;2023-02-16T07:32:49;15.35;;;10.95;;
52047;SDS011;46904;49.438;8.752;2023-02-16T07:35:15;17.60;;;11.63;;
52047;SDS011;46904;49.438;8.752;2023-02-16T07:37:40;15.88;;;11.02;;
52047;SDS011;46904;49.438;8.752;2023-02-16T07:40:06;15.13;;;11.18;;
52047;SDS011;46904;49.438;8.752;2023-02-16T07:42:33;16.85;;;11.43;;
52047;SDS011;46904;49.438;8.752;2023-02-16T07:44:58;16.55;;;11.32;;
52047;SDS011;46904;49.438;8.752;2023-02-16T07:47:24;16.40;;;11.27;;
52047;SDS011;46904;49.438;8.752;2023-02-16T07:49:50;16.48;;;11.48;;
52047;SDS011;46904;49.438;8.752;2023-02-16T07:52:15;16.52;;;11.13;;
52047;SDS011;46904;49.438;8.752;2023-02-16T07:54:41;17.73;;;11.48;;
52047;SDS011;46904;49.438;8.752;2023-02-16T07:57:06;17.50;;;10.73;;
52047;SDS011;46904;49.438;8.752;2023-02-16T07:59:32;17.30;;;11.05;;
52047;SDS011;46904;49.438;8.752;2023-02-16T08:01:57;15.60;;;10.98;;
52047;SDS011;46904;49.438;8.752;2023-02-16T08:04:23;17.27;;;12.23;;
52047;SDS011;46904;49.438;8.752;2023-02-16T08:06:48;17.08;;;10.48;;
52047;SDS011;46904;49.438;8.752;2023-02-16T08:09:14;18.60;;;10.82;;
52047;SDS011;46904;49.438;8.752;2023-02-16T08:11:40;17.02;;;10.60;;
52047;SDS011;46904;49.438;8.752;2023-02-16T08:14:05;15.70;;;10.32;;
52047;SDS011;46904;49.438;8.752;2023-02-16T08:16:31;18.10;;;11.32;;
52047;SDS011;46904;49.438;8.752;2023-02-16T08:18:57;17.58;;;11.13;;
52047;SDS011;46904;49.438;8.752;2023-02-16T08:21:24;15.73;;;10.57;;
52047;SDS011;46904;49.438;8.752;2023-02-16T08:26:19;16.83;;;9.83;;
52047;SDS011;46904;49.438;8.752;2023-02-16T08:28:45;15.27;;;10.75;;
52047;SDS011;46904;49.438;8.752;2023-02-16T08:31:12;14.15;;;9.70;;
52047;SDS011;46904;49.438;8.752;2023-02-16T08:33:38;18.05;;;11.02;;
52047;SDS011;46904;49.438;8.752;2023-02-16T08:36:03;14.93;;;10.95;;
52047;SDS011;46904;49.438;8.752;2023-02-16T08:38:29;16.60;;;10.65;;
52047;SDS011;46904;49.438;8.752;2023-02-16T08:40:55;14.25;;;10.93;;
52047;SDS011;46904;49.438;8.752;2023-02-16T08:43:20;19.25;;;13.02;;
52047;SDS011;46904;49.438;8.752;2023-02-16T08:45:46;17.55;;;11.43;;
52047;SDS011;46904;49.438;8.752;2023-02-16T08:48:12;18.13;;;11.45;;
52047;SDS011;46904;49.438;8.752;2023-02-16T08:50:41;21.83;;;12.27;;
52047;SDS011;46904;49.438;8.752;2023-02-16T08:53:07;20.23;;;12.52;;
52047;SDS011;46904;49.438;8.752;2023-02-16T08:55:32;17.33;;;11.18;;
52047;SDS011;46904;49.438;8.752;2023-02-16T08:57:58;20.00;;;11.95;;
52047;SDS011;46904;49.438;8.752;2023-02-16T09:00:23;16.08;;;11.43;;
52047;SDS011;46904;49.438;8.752;2023-02-16T09:02:49;17.83;;;12.07;;
52047;SDS011;46904;49.438;8.752;2023-02-16T09:05:15;19.98;;;13.10;;
52047;SDS011;46904;49.438;8.752;2023-02-16T09:07:40;21.50;;;13.50;;
52047;SDS011;46904;49.438;8.752;2023-02-16T09:10:06;21.35;;;12.82;;
52047;SDS011;46904;49.438;8.752;2023-02-16T09:12:31;18.00;;;12.80;;
52047;SDS011;46904;49.438;8.752;2023-02-16T09:14:57;20.90;;;11.90;;
52047;SDS011;46904;49.438;8.752;2023-02-16T09:17:23;18.85;;;12.25;;
52047;SDS011;46904;49.438;8.752;2023-02-16T09:19:48;18.48;;;12.02;;
52047;SDS011;46904;49.438;8.752;2023-02-16T09:22:14;17.08;;;11.10;;
52047;SDS011;46904;49.438;8.752;2023-02-16T09:24:39;17.48;;;11.02;;
52047;SDS011;46904;49.438;8.752;2023-02-16T09:27:05;18.80;;;11.38;;
52047;SDS011;46904;49.438;8.752;2023-02-16T09:29:30;18.63;;;11.65;;
52047;SDS011;46904;49.438;8.752;2023-02-16T09:31:56;19.15;;;11.93;;
52047;SDS011;46904;49.438;8.752;2023-02-16T09:34:22;20.58;;;12.00;;
52047;SDS011;46904;49.438;8.752;2023-02-16T09:36:48;15.52;;;10.95;;
52047;SDS011;46904;49.438;8.752;2023-02-16T09:39:14;17.15;;;9.68;;
52047;SDS011;46904;49.438;8.752;2023-02-16T09:44:17;15.32;;;10.40;;
52047;SDS011;46904;49.438;8.752;2023-02-16T09:46:48;16.05;;;9.52;;
52047;SDS011;46904;49.438;8.752;2023-02-16T09:49:36;20.20;;;11.32;;
52047;SDS011;46904;49.438;8.752;2023-02-16T09:52:22;13.52;;;9.77;;
52047;SDS011;46904;49.438;8.752;2023-02-16T09:54:52;18.10;;;9.68;;
52047;SDS011;46904;49.438;8.752;2023-02-16T10:02:56;15.23;;;9.40;;
52047;SDS011;46904;49.438;8.752;2023-02-16T10:08:20;12.18;;;9.32;;
52047;SDS011;46904;49.438;8.752;2023-02-16T10:10:49;14.57;;;9.18;;
52047;SDS011;46904;49.438;8.752;2023-02-16T10:13:31;13.02;;;8.32;;
52047;SDS011;46904;49.438;8.752;2023-02-16T10:15:59;14.23;;;8.00;;
52047;SDS011;46904;49.438;8.752;2023-02-16T10:18:30;13.00;;;8.45;;
52047;SDS011;46904;49.438;8.752;2023-02-16T10:20:57;14.73;;;9.15;;
52047;SDS011;46904;49.438;8.752;2023-02-16T10:25:51;14.48;;;8.90;;
52047;SDS011;46904;49.438;8.752;2023-02-16T10:31:16;13.68;;;9.25;;
52047;SDS011;46904;49.438;8.752;2023-02-16T10:33:45;14.00;;;8.98;;
52047;SDS011;46904;49.438;8.752;2023-02-16T10:36:23;13.40;;;8.90;;
52047;SDS011;46904;49.438;8.752;2023-02-16T10:41:43;11.63;;;7.90;;
52047;SDS011;46904;49.438;8.752;2023-02-16T10:44:20;11.45;;;7.78;;
52047;SDS011;46904;49.438;8.752;2023-02-16T10:46:47;10.02;;;7.03;;
52047;SDS011;46904;49.438;8.752;2023-02-16T10:49:16;12.35;;;8.57;;
52047;SDS011;46904;49.438;8.752;2023-02-16T10:51:46;11.95;;;7.70;;
52047;SDS011;46904;49.438;8.752;2023-02-16T10:54:15;11.55;;;8.13;;
52047;SDS011;46904;49.438;8.752;2023-02-16T10:59:20;12.02;;;7.82;;
52047;SDS011;46904;49.438;8.752;2023-02-16T11:01:50;11.00;;;7.55;;
52047;SDS011;46904;49.438;8.752;2023-02-16T11:04:29;13.02;;;8.43;;
52047;SDS011;46904;49.438;8.752;2023-02-16T11:07:14;10.52;;;7.07;;
52047;SDS011;46904;49.438;8.752;2023-02-16T11:09:41;9.40;;;7.38;;
52047;SDS011;46904;49.438;8.752;2023-02-16T11:15:34;10.48;;;7.88;;
52047;SDS011;46904;49.438;8.752;2023-02-16T11:20:28;9.48;;;7.40;;
52047;SDS011;46904;49.438;8.752;2023-02-16T11:23:11;9.70;;;6.95;;
52047;SDS011;46904;49.438;8.752;2023-02-16T11:25:37;12.95;;;7.97;;
52047;SDS011;46904;49.438;8.752;2023-02-16T11:28:08;11.38;;;7.63;;
52047;SDS011;46904;49.438;8.752;2023-02-16T11:30:37;9.32;;;6.95;;
52047;SDS011;46904;49.438;8.752;2023-02-16T11:33:09;11.32;;;7.38;;
52047;SDS011;46904;49.438;8.752;2023-02-16T11:35:45;10.20;;;6.93;;
52047;SDS011;46904;49.438;8.752;2023-02-16T11:38:30;13.50;;;7.45;;
52047;SDS011;46904;49.438;8.752;2023-02-16T11:40:59;8.63;;;6.75;;
52047;SDS011;46904;49.438;8.752;2023-02-16T11:46:17;9.82;;;6.90;;
52047;SDS011;46904;49.438;8.752;2023-02-16T11:49:18;8.93;;;6.40;;
52047;SDS011;46904;49.438;8.752;2023-02-16T11:51:49;9.68;;;6.38;;
52047;SDS011;46904;49.438;8.752;2023-02-16T11:57:33;9.02;;;6.70;;
52047;SDS011;46904;49.438;8.752;2023-02-16T12:00:05;9.90;;;6.90;;
52047;SDS011;46904;49.438;8.752;2023-02-16T12:31:42;11.00;;;5.78;;
52047;SDS011;46904;49.438;8.752;2023-02-16T12:39:37;7.55;;;5.57;;
52047;SDS011;46904;49.438;8.752;2023-02-16T12:42:17;8.63;;;5.72;;
52047;SDS011;46904;49.438;8.752;2023-02-16T12:45:02;8.60;;;5.20;;
52047;SDS011;46904;49.438;8.752;2023-02-16T12:50:38;7.45;;;5.13;;
52047;SDS011;46904;49.438;8.752;2023-02-16T12:53:06;8.13;;;5.43;;
52047;SDS011;46904;49.438;8.752;2023-02-16T12:55:37;7.55;;;5.25;;
52047;SDS011;46904;49.438;8.752;2023-02-16T13:06:44;9.63;;;5.88;;
52047;SDS011;46904;49.438;8.752;2023-02-16T13:12:00;7.93;;;5.57;;
52047;SDS011;46904;49.438;8.752;2023-02-16T13:14:41;10.38;;;6.22;;
52047;SDS011;46904;49.438;8.752;2023-02-16T13:17:35;8.35;;;6.55;;
52047;SDS011;46904;49.438;8.752;2023-02-16T13:44:39;6.05;;;4.88;;
52047;SDS011;46904;49.438;8.752;2023-02-16T13:47:06;6.32;;;4.65;;
52047;SDS011;46904;49.438;8.752;2023-02-16T13:49:36;8.85;;;6.18;;
52047;SDS011;46904;49.438;8.752;2023-02-16T13:52:03;5.75;;;4.60;;
52047;SDS011;46904;49.438;8.752;2023-02-16T13:54:30;10.95;;;5.13;;
52047;SDS011;46904;49.438;8.752;2023-02-16T13:56:58;5.90;;;4.97;;
52047;SDS011;46904;49.438;8.752;2023-02-16T14:02:02;8.65;;;5.00;;
52047;SDS011;46904;49.438;8.752;2023-02-16T14:22:20;7.88;;;4.65;;
52047;SDS011;46904;49.438;8.752;2023-02-16T14:30:04;5.85;;;4.72;;
52047;SDS011;46904;49.438;8.752;2023-02-16T14:32:37;7.13;;;5.05;;
52047;SDS011;46904;49.438;8.752;2023-02-16T14:35:07;6.47;;;4.45;;
52047;SDS011;46904;49.438;8.752;2023-02-16T14:37:39;7.93;;;4.38;;
52047;SDS011;46904;49.438;8.752;2023-02-16T14:42:37;6.78;;;4.70;;
52047;SDS011;46904;49.438;8.752;2023-02-16T14:45:32;6.35;;;4.53;;
52047;SDS011;46904;49.438;8.752;2023-02-16T14:58:56;6.65;;;4.75;;
52047;SDS011;46904;49.438;8.752;2023-02-16T15:01:23;5.43;;;3.90;;
52047;SDS011;46904;49.438;8.752;2023-02-16T15:03:52;8.00;;;4.65;;
52047;SDS011;46904;49.438;8.752;2023-02-16T15:09:11;7.13;;;4.78;;
52047;SDS011;46904;49.438;8.752;2023-02-16T15:11:33;6.75;;;4.63;;
52047;SDS011;46904;49.438;8.752;2023-02-16T15:14:07;7.20;;;4.72;;
52047;SDS011;46904;49.438;8.752;2023-02-16T15:16:39;19.90;;;5.32;;
52047;SDS011;46904;49.438;8.752;2023-02-16T15:19:10;6.70;;;5.10;;
52047;SDS011;46904;49.438;8.752;2023-02-16T15:21:36;7.45;;;5.05;;
52047;SDS011;46904;49.438;8.752;2023-02-16T15:24:02;6.90;;;4.90;;
52047;SDS011;46904;49.438;8.752;2023-02-16T15:26:29;7.03;;;5.13;;
52047;SDS011;46904;49.438;8.752;2023-02-16T15:28:56;6.88;;;4.70;;
52047;SDS011;46904;49.438;8.752;2023-02-16T15:31:37;6.22;;;4.10;;
52047;SDS011;46904;49.438;8.752;2023-02-16T15:34:04;6.82;;;4.97;;
52047;SDS011;46904;49.438;8.752;2023-02-16T15:36:36;8.52;;;5.30;;
52047;SDS011;46904;49.438;8.752;2023-02-16T15:39:04;9.13;;;6.43;;
52047;SDS011;46904;49.438;8.752;2023-02-16T15:41:40;6.65;;;5.00;;
52047;SDS011;46904;49.438;8.752;2023-02-16T15:44:14;9.27;;;5.20;;
52047;SDS011;46904;49.438;8.752;2023-02-16T15:46:51;8.15;;;5.43;;
52047;SDS011;46904;49.438;8.752;2023-02-16T15:49:30;6.82;;;5.40;;
52047;SDS011;46904;49.438;8.752;2023-02-16T15:51:56;9.25;;;6.70;;
52047;SDS011;46904;49.438;8.752;2023-02-16T15:54:23;7.47;;;4.93;;
52047;SDS011;46904;49.438;8.752;2023-02-16T15:56:50;6.78;;;4.43;;
52047;SDS011;46904;49.438;8.752;2023-02-16T16:01:42;7.07;;;4.40;;
52047;SDS011;46904;49.438;8.752;2023-02-16T16:04:20;8.23;;;4.85;;
52047;SDS011;46904;49.438;8.752;2023-02-16T16:06:46;6.80;;;4.60;;
52047;SDS011;46904;49.438;8.752;2023-02-16T16:09:16;6.57;;;4.60;;
52047;SDS011;46904;49.438;8.752;2023-02-16T16:11:44;5.95;;;4.45;;
52047;SDS011;46904;49.438;8.752;2023-02-16T16:14:10;6.95;;;4.43;;
52047;SDS011;46904;49.438;8.752;2023-02-16T16:16:36;5.45;;;4.63;;
52047;SDS011;46904;49.438;8.752;2023-02-16T16:19:18;5.63;;;3.85;;
52047;SDS011;46904;49.438;8.752;2023-02-16T16:21:48;6.32;;;4.13;;
52047;SDS011;46904;49.438;8.752;2023-02-16T16:24:25;5.72;;;4.15;;
52047;SDS011;46904;49.438;8.752;2023-02-16T16:26:55;6.72;;;4.88;;
52047;SDS011;46904;49.438;8.752;2023-02-16T16:29:40;5.75;;;4.55;;
52047;SDS011;46904;49.438;8.752;2023-02-16T16:32:14;5.35;;;4.10;;
52047;SDS011;46904;49.438;8.752;2023-02-16T16:34:40;9.32;;;4.50;;
52047;SDS011;46904;49.438;8.752;2023-02-16T16:37:14;7.38;;;4.80;;
52047;SDS011;46904;49.438;8.752;2023-02-16T16:39:43;6.90;;;5.07;;
52047;SDS011;46904;49.438;8.752;2023-02-16T16:42:21;4.15;;;3.50;;
52047;SDS011;46904;49.438;8.752;2023-02-16T16:49:55;8.05;;;5.13;;
52047;SDS011;46904;49.438;8.752;2023-02-16T16:52:31;6.05;;;4.45;;
52047;SDS011;46904;49.438;8.752;2023-02-16T16:54:57;6.72;;;4.60;;
52047;SDS011;46904;49.438;8.752;2023-02-16T16:57:26;11.38;;;5.22;;
52047;SDS011;46904;49.438;8.752;2023-02-16T16:59:52;6.13;;;4.10;;
52047;SDS011;46904;49.438;8.752;2023-02-16T17:02:24;8.35;;;6.15;;
52047;SDS011;46904;49.438;8.752;2023-02-16T17:04:50;9.52;;;6.03;;
52047;SDS011;46904;49.438;8.752;2023-02-16T17:07:16;10.02;;;6.38;;
52047;SDS011;46904;49.438;8.752;2023-02-16T17:09:42;7.78;;;5.60;;
52047;SDS011;46904;49.438;8.752;2023-02-16T17:12:08;7.68;;;5.97;;
52047;SDS011;46904;49.438;8.752;2023-02-16T17:14:33;7.50;;;5.75;;
52047;SDS011;46904;49.438;8.752;2023-02-16T17:16:59;6.95;;;5.65;;
52047;SDS011;46904;49.438;8.752;2023-02-16T17:19:25;7.50;;;5.72;;
52047;SDS011;46904;49.438;8.752;2023-02-16T17:21:50;6.22;;;5.10;;
52047;SDS011;46904;49.438;8.752;2023-02-16T17:24:16;7.65;;;5.22;;
52047;SDS011;46904;49.438;8.752;2023-02-16T17:26:42;8.10;;;6.55;;
52047;SDS011;46904;49.438;8.752;2023-02-16T17:29:07;8.85;;;5.47;;
52047;SDS011;46904;49.438;8.752;2023-02-16T17:31:33;9.48;;;6.53;;
52047;SDS011;46904;49.438;8.752;2023-02-16T17:33:58;7.90;;;5.38;;
52047;SDS011;46904;49.438;8.752;2023-02-16T17:36:24;9.50;;;6.13;;
52047;SDS011;46904;49.438;8.752;2023-02-16T17:38:50;9.15;;;6.65;;
52047;SDS011;46904;49.438;8.752;2023-02-16T17:41:20;11.60;;;6.80;;
52047;SDS011;46904;49.438;8.752;2023-02-16T17:43:46;11.05;;;7.93;;